Time;durP1;ratioP1;P1;durP2;ratioP2;P2;SDS_P1;SDS_P2;PMS_P1;PMS_P2;Temp;Humidity;BMP_temperature;BMP_pressure;BME280_temperature;BME280_humidity;BME280_pressure;Samples;Min_cycle;Max_cycle;Signal;HPM_P1;HPM_P2
2021/01/08 00:00:20;;;;;;;11.30;7.43;;;-2.70;99.90;;;;;;2064233;28;20171;-59
2021/01/08 00:01:21;;;;;;;11.98;7.50;;;-2.70;99.90;;;;;;2061490;28;20202;-60
2021/01/08 00:02:21;;;;;;;11.07;6.87;;;-2.60;99.90;;;;;;2057695;28;20199;-58
2021/01/08 00:03:22;;;;;;;12.03;7.33;;;-2.60;99.90;;;;;;2064343;28;20542;-60
2021/01/08 00:04:23;;;;;;;14.40;7.13;;;-2.60;99.90;;;;;;2064263;28;20190;-60
2021/01/08 00:05:23;;;;;;;11.17;7.23;;;-2.60;99.90;;;;;;2064196;28;20192;-58
2021/01/08 00:06:24;;;;;;;15.10;7.77;;;-2.60;99.90;;;;;;2064274;28;20175;-58
2021/01/08 00:07:25;;;;;;;14.60;7.57;;;-2.60;99.90;;;;;;2061031;28;20193;-59
2021/01/08 00:08:25;;;;;;;12.73;7.23;;;-2.60;99.90;;;;;;2056244;28;20684;-60
2021/01/08 00:09:26;;;;;;;10.90;6.63;;;-2.60;99.90;;;;;;2059669;28;20273;-57
2021/01/08 00:10:29;;;;;;;10.83;6.47;;;-2.60;99.90;;;;;;2063088;28;20278;-59
2021/01/08 00:11:29;;;;;;;13.73;7.90;;;-2.60;99.90;;;;;;2060135;28;20300;-61
2021/01/08 00:12:31;;;;;;;11.83;7.13;;;-2.60;99.90;;;;;;2056307;28;20245;-58
2021/01/08 00:13:32;;;;;;;12.95;7.22;;;-2.60;99.90;;;;;;2060223;28;20198;-58
2021/01/08 00:14:33;;;;;;;13.87;7.23;;;-2.60;99.90;;;;;;2064333;28;20193;-57
2021/01/08 00:15:34;;;;;;;12.07;7.72;;;-2.60;99.90;;;;;;2064271;28;20679;-57
2021/01/08 00:16:35;;;;;;;13.83;7.37;;;-2.60;99.90;;;;;;2064229;28;20184;-56
2021/01/08 00:17:36;;;;;;;11.02;7.00;;;-2.60;99.90;;;;;;2064216;28;20186;-56
2021/01/08 00:18:37;;;;;;;13.70;8.10;;;-2.60;99.90;;;;;;2064356;28;20241;-58
2021/01/08 00:19:38;;;;;;;12.93;7.73;;;-2.60;99.90;;;;;;2059310;28;20695;-60
2021/01/08 00:20:39;;;;;;;11.20;7.15;;;-2.50;99.90;;;;;;2056160;28;20182;-59
2021/01/08 00:21:44;;;;;;;13.10;7.97;;;-2.60;99.90;;;;;;2055611;28;20752;-62
2021/01/08 00:22:46;;;;;;;12.52;7.07;;;-2.50;99.90;;;;;;2056188;28;20259;-60
2021/01/08 00:23:47;;;;;;;13.25;7.43;;;-2.40;99.90;;;;;;2056522;28;20185;-60
2021/01/08 00:24:48;;;;;;;11.75;7.35;;;-2.40;99.90;;;;;;2056472;28;20686;-57
2021/01/08 00:25:51;;;;;;;11.73;7.10;;;-2.40;99.90;;;;;;2056394;28;20178;-58
2021/01/08 00:26:54;;;;;;;12.55;7.28;;;-2.40;99.90;;;;;;2056513;28;20232;-60
2021/01/08 00:27:55;;;;;;;11.02;6.50;;;-2.40;99.90;;;;;;2055920;28;20183;-59
2021/01/08 00:28:56;;;;;;;11.37;7.67;;;-2.40;99.90;;;;;;2056341;28;20234;-59
2021/01/08 00:29:56;;;;;;;12.00;7.03;;;-2.40;99.90;;;;;;2056335;28;20195;-59
2021/01/08 00:30:57;;;;;;;14.27;7.80;;;-2.40;99.90;;;;;;2056248;28;20326;-59
2021/01/08 00:31:58;;;;;;;13.13;8.13;;;-2.40;99.90;;;;;;2056430;28;20200;-59
2021/01/08 00:32:58;;;;;;;14.37;8.40;;;-2.40;99.90;;;;;;2056316;28;20580;-59
2021/01/08 00:33:59;;;;;;;11.63;7.63;;;-2.40;99.90;;;;;;2056459;28;20202;-60
2021/01/08 00:35:00;;;;;;;11.80;7.07;;;-2.40;99.90;;;;;;2056724;28;20203;-58
2021/01/08 00:36:04;;;;;;;13.20;7.80;;;-2.40;99.90;;;;;;2056398;28;20188;-59
2021/01/08 00:37:06;;;;;;;13.50;7.75;;;-2.40;99.90;;;;;;2056567;28;20260;-60
2021/01/08 00:38:08;;;;;;;13.23;7.13;;;-2.40;99.90;;;;;;2056326;28;20657;-59
2021/01/08 00:39:08;;;;;;;11.27;6.85;;;-2.30;99.90;;;;;;2056465;28;20206;-59
2021/01/08 00:40:10;;;;;;;10.93;6.70;;;-2.30;99.90;;;;;;2056421;28;20189;-59
2021/01/08 00:41:10;;;;;;;11.88;6.82;;;-2.30;99.90;;;;;;2056447;28;20221;-59
2021/01/08 00:42:11;;;;;;;12.63;8.03;;;-2.20;99.90;;;;;;2056521;28;20218;-58
2021/01/08 00:43:12;;;;;;;11.87;7.47;;;-2.30;99.90;;;;;;2056450;28;20736;-59
2021/01/08 00:44:13;;;;;;;12.97;7.20;;;-2.30;99.90;;;;;;2056257;28;20645;-59
2021/01/08 00:45:14;;;;;;;10.77;6.82;;;-2.20;99.90;;;;;;2056524;28;20178;-58
2021/01/08 00:46:15;;;;;;;11.02;7.25;;;-2.20;99.90;;;;;;2056411;28;20225;-59
2021/01/08 00:47:15;;;;;;;13.20;7.23;;;-2.20;99.90;;;;;;2056515;28;20751;-59
2021/01/08 00:48:16;;;;;;;12.30;7.67;;;-2.10;99.90;;;;;;2056384;28;20181;-57
2021/01/08 00:49:18;;;;;;;11.70;7.33;;;-2.10;99.90;;;;;;2056411;28;20178;-58
2021/01/08 00:50:20;;;;;;;10.85;7.20;;;-2.10;99.90;;;;;;2056624;28;20187;-59
2021/01/08 00:51:23;;;;;;;11.32;7.05;;;-2.10;99.90;;;;;;2057683;28;20565;-59
2021/01/08 00:52:24;;;;;;;11.90;6.95;;;-2.10;99.90;;;;;;2057699;28;20559;-58
2021/01/08 00:53:24;;;;;;;12.23;6.77;;;-2.10;99.90;;;;;;2058022;28;20224;-60
2021/01/08 00:54:25;;;;;;;12.67;7.63;;;-2.10;99.90;;;;;;2082940;23;20565;31
2021/01/08 00:55:26;;;;;;;11.37;6.97;;;-2.00;99.90;;;;;;2077916;28;20216;-68
2021/01/08 00:56:27;;;;;;;12.27;7.33;;;-2.10;99.90;;;;;;2082294;28;20222;-69
2021/01/08 00:57:27;;;;;;;12.88;7.32;;;-2.00;99.90;;;;;;2082144;28;20573;-70
2021/01/08 00:58:28;;;;;;;12.00;7.80;;;-2.00;99.90;;;;;;2073847;28;20216;-69
2021/01/08 00:59:29;;;;;;;13.53;7.23;;;-2.00;99.90;;;;;;2081866;28;20663;-69
2021/01/08 01:00:29;;;;;;;12.90;7.33;;;-1.90;99.90;;;;;;2082538;28;20221;-69
2021/01/08 01:01:30;;;;;;;11.73;7.33;;;-1.90;99.90;;;;;;2082128;28;20210;-70
2021/01/08 01:02:33;;;;;;;12.67;7.57;;;-1.90;99.90;;;;;;2082239;28;20181;-69
2021/01/08 01:03:33;;;;;;;11.60;7.20;;;-2.00;99.90;;;;;;2081918;28;20565;-69
2021/01/08 01:04:34;;;;;;;13.17;7.27;;;-2.00;99.90;;;;;;2082232;28;20183;-70
2021/01/08 01:05:35;;;;;;;12.82;6.90;;;-2.00;99.90;;;;;;2081941;28;20781;-70
2021/01/08 01:06:36;;;;;;;12.47;7.53;;;-2.00;99.90;;;;;;2074045;28;20195;-70
2021/01/08 01:07:36;;;;;;;12.10;7.20;;;-2.00;99.90;;;;;;2082046;28;20642;-70
2021/01/08 01:08:38;;;;;;;12.73;7.20;;;-1.90;99.90;;;;;;2090416;28;20696;-69
2021/01/08 01:09:38;;;;;;;13.68;7.28;;;-1.90;99.90;;;;;;2082050;28;20178;-70
2021/01/08 01:10:39;;;;;;;12.87;7.90;;;-1.90;99.90;;;;;;2082110;28;20675;-69
2021/01/08 01:11:40;;;;;;;10.97;6.53;;;-1.80;99.90;;;;;;2065341;28;20184;-70
2021/01/08 01:12:40;;;;;;;12.30;7.57;;;-1.90;99.90;;;;;;2074025;28;20184;-70
2021/01/08 01:13:42;;;;;;;11.03;7.00;;;-1.80;99.90;;;;;;2082676;28;20183;-70
2021/01/08 01:14:44;;;;;;;12.55;7.47;;;-1.80;99.90;;;;;;2082121;28;20616;-69
2021/01/08 01:15:44;;;;;;;11.40;6.22;;;-1.90;99.90;;;;;;2081834;28;20833;-70
2021/01/08 01:16:45;;;;;;;12.23;6.80;;;-1.90;99.90;;;;;;2082681;28;20260;-70
2021/01/08 01:17:46;;;;;;;9.87;6.47;;;-1.80;99.90;;;;;;2082423;28;20217;-70
2021/01/08 01:18:48;;;;;;;10.93;6.67;;;-1.80;99.90;;;;;;2081944;28;20215;-69
2021/01/08 01:19:49;;;;;;;12.48;7.38;;;-1.80;99.90;;;;;;2082100;28;20307;-69
2021/01/08 01:20:49;;;;;;;11.90;6.63;;;-1.80;99.90;;;;;;2082353;28;20175;-69
2021/01/08 01:21:50;;;;;;;9.73;6.00;;;-1.90;99.90;;;;;;2081671;28;20175;-70
2021/01/08 01:22:51;;;;;;;14.83;7.83;;;-1.80;99.90;;;;;;2073608;28;20188;-69
2021/01/08 01:23:52;;;;;;;12.17;7.43;;;-1.90;99.90;;;;;;2081017;28;20209;-69
2021/01/08 01:24:52;;;;;;;13.77;7.63;;;-1.90;99.90;;;;;;2081962;28;20208;-69
2021/01/08 01:25:53;;;;;;;13.23;7.73;;;-2.00;99.90;;;;;;2073648;28;20236;-69
2021/01/08 01:27:00;;;;;;;10.97;7.30;;;-2.00;99.90;;;;;;2073987;28;20208;-69
2021/01/08 01:28:01;;;;;;;10.02;6.28;;;-2.10;99.90;;;;;;2074363;28;20210;-69
2021/01/08 01:29:02;;;;;;;10.47;6.27;;;-2.10;99.90;;;;;;2081891;28;20211;-69
2021/01/08 01:30:03;;;;;;;11.53;7.07;;;-2.20;99.90;;;;;;2081919;28;20200;-70
2021/01/08 01:31:05;;;;;;;11.27;7.10;;;-2.20;99.90;;;;;;2081429;28;20579;-69
2021/01/08 01:32:05;;;;;;;12.25;7.28;;;-2.20;99.90;;;;;;2082069;28;20219;-70
2021/01/08 01:33:06;;;;;;;11.47;7.13;;;-2.20;99.90;;;;;;2082353;28;20237;-70
2021/01/08 01:34:07;;;;;;;10.90;6.77;;;-2.20;99.90;;;;;;2081848;28;20832;-70
2021/01/08 01:35:08;;;;;;;10.90;6.37;;;-2.30;99.90;;;;;;2081693;28;20203;-69
2021/01/08 01:36:09;;;;;;;10.82;6.43;;;-2.30;99.90;;;;;;2082257;28;20234;-69
2021/01/08 01:37:10;;;;;;;9.63;6.43;;;-2.30;99.90;;;;;;2081454;28;20674;-70
2021/01/08 01:38:11;;;;;;;10.20;6.50;;;-2.30;99.90;;;;;;2073420;28;20185;-70
2021/01/08 01:39:15;;;;;;;10.50;6.80;;;-2.30;99.90;;;;;;2081720;28;20186;-69
2021/01/08 01:40:16;;;;;;;11.68;7.30;;;-2.30;99.90;;;;;;2073409;28;20625;-69
2021/01/08 01:41:16;;;;;;;11.53;6.70;;;-2.30;99.90;;;;;;2073210;28;20191;-69
2021/01/08 01:42:17;;;;;;;10.53;6.50;;;-2.30;99.90;;;;;;2073515;28;20203;-70
2021/01/08 01:43:18;;;;;;;10.90;6.63;;;-2.30;99.90;;;;;;2081556;28;20200;-69
2021/01/08 01:44:18;;;;;;;10.40;6.80;;;-2.40;99.90;;;;;;2082213;28;20550;-69
2021/01/08 01:45:19;;;;;;;12.10;6.63;;;-2.40;99.90;;;;;;2081462;28;20242;-69
2021/01/08 01:46:21;;;;;;;10.87;6.33;;;-2.30;99.90;;;;;;2073621;28;20202;-69
2021/01/08 01:47:22;;;;;;;14.02;7.38;;;-2.30;99.90;;;;;;2073811;28;20752;-69
2021/01/08 01:48:23;;;;;;;10.17;6.93;;;-2.30;99.90;;;;;;2081497;28;20186;-69
2021/01/08 01:49:24;;;;;;;12.35;7.60;;;-2.30;99.90;;;;;;2081442;28;20423;-70
2021/01/08 01:50:26;;;;;;;10.40;6.53;;;-2.30;99.90;;;;;;2081544;28;20184;-69
2021/01/08 01:51:27;;;;;;;12.20;6.35;;;-2.30;99.90;;;;;;2081328;28;20184;-70
2021/01/08 01:52:28;;;;;;;11.20;6.57;;;-2.30;99.90;;;;;;2073430;28;20247;-69
2021/01/08 01:53:28;;;;;;;11.50;7.07;;;-2.30;99.90;;;;;;2073212;28;20211;-69
2021/01/08 01:54:29;;;;;;;13.87;7.00;;;-2.20;99.90;;;;;;2065211;28;20468;-69
2021/01/08 01:55:30;;;;;;;11.47;7.10;;;-2.30;99.90;;;;;;2073280;28;20259;-70
2021/01/08 01:56:31;;;;;;;11.52;7.07;;;-2.30;99.90;;;;;;2082239;28;20184;-69
2021/01/08 01:57:32;;;;;;;11.03;6.77;;;-2.20;99.90;;;;;;2082097;28;20270;-70
2021/01/08 01:58:33;;;;;;;12.03;6.93;;;-2.20;99.90;;;;;;2082136;28;20633;-70
2021/01/08 01:59:33;;;;;;;10.80;6.37;;;-2.20;99.90;;;;;;2081849;28;20263;-69
2021/01/08 02:00:34;;;;;;;8.80;5.97;;;-2.20;99.90;;;;;;2081417;28;20215;-71
2021/01/08 02:01:35;;;;;;;10.20;6.13;;;-2.30;99.90;;;;;;2081019;28;20266;-69
2021/01/08 02:02:53;;;;;;;10.77;6.67;;;-2.30;99.90;;;;;;2082071;28;20186;-70
2021/01/08 02:03:58;;;;;;;9.77;5.53;;;-2.30;99.90;;;;;;2081595;28;20159;-69
2021/01/08 02:05:05;;;;;;;8.98;5.55;;;-2.20;99.90;;;;;;2073793;28;20206;-69
2021/01/08 02:06:13;;;;;;;8.55;5.43;;;-2.20;99.90;;;;;;2074136;28;20176;-68
2021/01/08 02:07:14;;;;;;;10.18;5.80;;;-2.30;99.90;;;;;;2074269;28;20165;-69
2021/01/08 02:08:22;;;;;;;8.98;5.60;;;-2.20;99.90;;;;;;2081383;28;20192;-69
2021/01/08 02:09:23;;;;;;;8.57;5.63;;;-2.20;99.90;;;;;;2074282;28;20176;-69
2021/01/08 02:10:26;;;;;;;9.52;6.10;;;-2.20;99.90;;;;;;2073219;28;20181;-69
2021/01/08 02:11:32;;;;;;;9.05;5.88;;;-2.20;99.90;;;;;;2073402;28;20544;-70
2021/01/08 02:12:34;;;;;;;8.20;5.95;;;-2.20;99.90;;;;;;2074098;28;20179;-69
2021/01/08 02:14:03;;;;;;;8.02;5.40;;;-2.10;99.90;;;;;;2073232;28;20241;-69
2021/01/08 02:15:05;;;;;;;8.52;5.28;;;-2.10;99.90;;;;;;2081504;28;20223;-70
2021/01/08 02:16:09;;;;;;;7.70;5.07;;;-2.10;99.90;;;;;;2081174;28;20199;-69
2021/01/08 02:17:12;;;;;;;9.38;5.55;;;-2.10;99.90;;;;;;2073607;28;20681;-69
2021/01/08 02:18:14;;;;;;;8.40;5.43;;;-2.10;99.90;;;;;;2073267;28;20204;-69
2021/01/08 02:19:48;;;;;;;9.23;5.78;;;-2.10;99.90;;;;;;2073371;28;20186;-69
2021/01/08 02:20:51;;;;;;;8.23;4.72;;;-2.10;99.90;;;;;;2069881;28;20189;-70
2021/01/08 02:22:00;;;;;;;7.60;5.35;;;-2.10;99.90;;;;;;2065383;28;20191;-69
2021/01/08 02:23:07;;;;;;;8.60;4.93;;;-2.10;99.90;;;;;;2075407;28;20184;-69
2021/01/08 02:24:23;;;;;;;7.15;4.95;;;-2.10;99.90;;;;;;2081364;28;20182;-70
2021/01/08 02:25:29;;;;;;;5.70;4.15;;;-2.10;99.90;;;;;;2075234;28;20164;-69
2021/01/08 02:26:30;;;;;;;7.82;5.03;;;-2.10;99.90;;;;;;2073638;28;20194;-70
2021/01/08 02:27:34;;;;;;;7.78;4.95;;;-2.10;99.90;;;;;;2073251;28;20687;-69
2021/01/08 02:28:36;;;;;;;7.30;5.13;;;-2.10;99.90;;;;;;2073486;28;20188;-69
2021/01/08 02:29:40;;;;;;;7.78;4.57;;;-2.00;99.90;;;;;;2073320;28;20192;-71
2021/01/08 02:30:41;;;;;;;7.07;4.78;;;-2.00;99.90;;;;;;2073427;28;20203;-70
2021/01/08 02:31:42;;;;;;;7.68;5.32;;;-1.90;99.90;;;;;;2081112;28;20729;-70
2021/01/08 02:32:43;;;;;;;8.02;4.78;;;-1.90;99.90;;;;;;2081362;28;20269;-70
2021/01/08 02:33:45;;;;;;;7.50;4.45;;;-1.90;99.90;;;;;;2073080;28;20665;-70
2021/01/08 02:34:46;;;;;;;7.20;4.93;;;-1.90;99.90;;;;;;2073008;28;20208;-70
2021/01/08 02:35:50;;;;;;;7.82;5.32;;;-1.90;99.90;;;;;;2073099;28;20181;-69
2021/01/08 02:36:52;;;;;;;6.30;4.35;;;-1.90;99.90;;;;;;2065160;28;20727;-71
2021/01/08 02:37:56;;;;;;;7.32;4.85;;;-1.90;99.90;;;;;;2073280;28;20644;-70
2021/01/08 02:38:57;;;;;;;7.82;5.03;;;-1.90;99.90;;;;;;2081195;28;20233;-70
2021/01/08 02:39:58;;;;;;;8.48;5.35;;;-1.90;99.90;;;;;;2081239;28;20229;-71
2021/01/08 02:41:01;;;;;;;8.83;5.40;;;-1.90;99.90;;;;;;2081148;28;20241;-69
2021/01/08 02:42:04;;;;;;;7.25;4.90;;;-1.90;99.90;;;;;;2081238;28;20187;-70
2021/01/08 02:43:06;;;;;;;5.90;4.13;;;-1.80;99.90;;;;;;2073541;28;20201;-70
2021/01/08 02:44:08;;;;;;;7.15;4.60;;;-1.80;99.90;;;;;;2073031;28;20179;-70
2021/01/08 02:45:10;;;;;;;6.53;4.47;;;-1.80;99.90;;;;;;2081209;28;20287;-70
2021/01/08 02:46:11;;;;;;;6.07;4.18;;;-1.80;99.90;;;;;;2081295;28;20262;-69
2021/01/08 02:47:11;;;;;;;5.27;3.90;;;-1.80;99.90;;;;;;2073045;28;20671;-69
2021/01/08 02:48:12;;;;;;;7.00;4.63;;;-1.80;99.90;;;;;;2081195;28;20171;-71
2021/01/08 02:49:13;;;;;;;5.30;3.37;;;-1.80;99.90;;;;;;2081968;28;20210;-70
2021/01/08 02:50:14;;;;;;;6.30;4.40;;;-1.80;99.90;;;;;;2081924;28;20453;-70
2021/01/08 02:51:15;;;;;;;7.20;4.87;;;-1.80;99.90;;;;;;2081598;28;20172;-70
2021/01/08 02:52:16;;;;;;;6.43;3.92;;;-1.80;99.90;;;;;;2073126;28;20679;-72
2021/01/08 02:53:22;;;;;;;5.93;4.32;;;-1.70;99.90;;;;;;2065074;28;20192;-70
2021/01/08 02:54:22;;;;;;;6.85;4.90;;;-1.70;99.90;;;;;;2073965;28;20181;-70
2021/01/08 02:55:30;;;;;;;6.20;4.37;;;-1.70;99.90;;;;;;2081059;28;20247;-70
2021/01/08 02:56:44;;;;;;;6.55;4.30;;;-1.70;99.90;;;;;;2073160;28;20238;-72
2021/01/08 02:57:45;;;;;;;5.82;4.03;;;-1.70;99.90;;;;;;2068414;28;20180;-70
2021/01/08 02:58:47;;;;;;;7.18;4.43;;;-1.80;99.90;;;;;;2080878;28;20301;-70
2021/01/08 02:59:48;;;;;;;6.70;4.63;;;-1.80;99.90;;;;;;2080977;28;20198;-70
2021/01/08 03:00:52;;;;;;;7.05;3.83;;;-1.80;99.90;;;;;;2072757;28;20230;-70
2021/01/08 03:01:53;;;;;;;6.55;4.32;;;-1.70;99.90;;;;;;2073317;28;20187;-70
2021/01/08 03:02:55;;;;;;;5.63;4.15;;;-1.70;99.90;;;;;;2073213;28;20187;-70
2021/01/08 03:03:59;;;;;;;5.65;4.25;;;-1.70;99.90;;;;;;2080935;28;20184;-71
2021/01/08 03:05:00;;;;;;;6.40;4.43;;;-1.70;99.90;;;;;;2081553;28;20764;-70
2021/01/08 03:06:02;;;;;;;6.30;4.03;;;-1.70;99.90;;;;;;2072664;28;20189;-70
2021/01/08 03:07:04;;;;;;;8.35;4.78;;;-1.70;99.90;;;;;;2073109;28;20181;-70
2021/01/08 03:08:05;;;;;;;8.43;4.55;;;-1.60;99.90;;;;;;2080808;28;20213;-70
2021/01/08 03:09:06;;;;;;;6.57;4.28;;;-1.50;99.90;;;;;;2072832;28;20620;-70
2021/01/08 03:10:08;;;;;;;6.82;4.57;;;-1.50;99.90;;;;;;2080863;28;20184;-70
2021/01/08 03:11:11;;;;;;;6.30;4.13;;;-1.60;99.90;;;;;;2081647;28;20180;-70
2021/01/08 03:12:14;;;;;;;6.88;4.38;;;-1.60;99.90;;;;;;2081644;28;20582;-71
2021/01/08 03:13:16;;;;;;;6.18;4.22;;;-1.50;99.90;;;;;;2080513;28;20731;-71
2021/01/08 03:14:17;;;;;;;5.65;4.22;;;-1.60;99.90;;;;;;2077520;28;20203;-70
2021/01/08 03:15:17;;;;;;;5.75;3.92;;;-1.60;99.90;;;;;;2081500;28;20195;-70
2021/01/08 03:16:20;;;;;;;5.80;4.17;;;-1.60;99.90;;;;;;2081380;28;20184;-70
2021/01/08 03:17:21;;;;;;;6.97;4.30;;;-1.70;99.90;;;;;;2081091;28;20666;-70
2021/01/08 03:18:21;;;;;;;6.23;4.27;;;-1.70;99.90;;;;;;2080774;28;20207;-70
2021/01/08 03:19:25;;;;;;;6.50;4.40;;;-1.70;99.90;;;;;;2081620;28;20549;-70
2021/01/08 03:20:26;;;;;;;5.85;4.05;;;-1.70;99.90;;;;;;2080632;28;20188;-70
2021/01/08 03:21:26;;;;;;;6.57;4.57;;;-1.80;99.90;;;;;;2080758;28;20218;-69
2021/01/08 03:22:27;;;;;;;7.00;4.93;;;-1.80;99.90;;;;;;2080840;28;20187;-70
2021/01/08 03:23:28;;;;;;;7.20;4.30;;;-1.70;99.90;;;;;;2081082;28;20183;-70
2021/01/08 03:24:29;;;;;;;7.63;4.93;;;-1.70;99.90;;;;;;2081323;28;20175;-70
2021/01/08 03:25:31;;;;;;;7.03;4.45;;;-1.60;99.90;;;;;;2081458;28;20187;-71
2021/01/08 03:26:31;;;;;;;6.45;4.53;;;-1.60;99.90;;;;;;2080691;28;20184;-70
2021/01/08 03:27:32;;;;;;;6.73;4.57;;;-1.70;99.90;;;;;;2080877;28;20180;-70
2021/01/08 03:28:33;;;;;;;7.37;4.77;;;-1.70;99.90;;;;;;2080774;28;20271;-70
2021/01/08 03:29:34;;;;;;;8.60;4.60;;;-1.70;99.90;;;;;;2072645;28;20195;-70
2021/01/08 03:30:35;;;;;;;6.00;4.37;;;-1.70;99.90;;;;;;2080688;28;20192;-70
2021/01/08 03:31:35;;;;;;;7.93;4.80;;;-1.70;99.90;;;;;;2080498;28;20192;-70
2021/01/08 03:32:36;;;;;;;7.20;4.77;;;-1.70;99.90;;;;;;2072772;28;20188;-70
2021/01/08 03:33:37;;;;;;;6.57;4.25;;;-1.70;99.90;;;;;;2080847;28;20182;-70
2021/01/08 03:34:38;;;;;;;6.37;4.50;;;-1.60;99.90;;;;;;2080889;28;20198;-70
2021/01/08 03:35:39;;;;;;;7.67;4.80;;;-1.60;99.90;;;;;;2080537;28;20207;-70
2021/01/08 03:36:39;;;;;;;6.47;4.70;;;-1.60;99.90;;;;;;2080747;28;20212;-70
2021/01/08 03:37:41;;;;;;;6.77;4.77;;;-1.70;99.90;;;;;;2080824;28;20184;-70
2021/01/08 03:38:41;;;;;;;6.80;4.75;;;-1.70;99.90;;;;;;2080816;28;20577;-70
2021/01/08 03:39:42;;;;;;;7.17;5.03;;;-1.70;99.90;;;;;;2072566;28;20190;-70
2021/01/08 03:40:43;;;;;;;7.33;5.13;;;-1.70;99.90;;;;;;2064667;28;20720;-70
2021/01/08 03:41:43;;;;;;;6.30;4.60;;;-1.70;99.90;;;;;;2072217;28;20185;-71
2021/01/08 03:42:44;;;;;;;6.53;4.60;;;-1.60;99.90;;;;;;2088863;28;20607;-70
2021/01/08 03:43:45;;;;;;;7.27;4.77;;;-1.60;99.90;;;;;;2088872;28;20186;-70
2021/01/08 03:44:45;;;;;;;6.63;4.87;;;-1.60;99.90;;;;;;2081232;28;20212;-70
2021/01/08 03:45:46;;;;;;;7.43;5.23;;;-1.60;99.90;;;;;;2081442;28;20184;-70
2021/01/08 03:46:47;;;;;;;7.23;4.73;;;-1.60;99.90;;;;;;2080710;28;20246;-70
2021/01/08 03:47:47;;;;;;;7.93;5.03;;;-1.50;99.90;;;;;;2080697;28;20176;-70
2021/01/08 03:48:54;;;;;;;6.67;5.07;;;-1.60;99.90;;;;;;2081402;28;20594;-70
2021/01/08 03:49:54;;;;;;;6.57;4.43;;;-1.60;99.90;;;;;;2079213;28;20191;-70
2021/01/08 03:50:55;;;;;;;7.77;5.17;;;-1.60;99.90;;;;;;2080289;28;20202;-70
2021/01/08 03:51:56;;;;;;;7.03;4.60;;;-1.60;99.90;;;;;;2080851;28;20195;-70
2021/01/08 03:52:57;;;;;;;6.40;4.60;;;-1.60;99.90;;;;;;2081282;28;20618;-69
2021/01/08 03:53:57;;;;;;;8.57;5.30;;;-1.60;99.90;;;;;;2081243;28;20192;-70
2021/01/08 03:54:58;;;;;;;8.17;5.33;;;-1.60;99.90;;;;;;2080618;28;20316;-70
2021/01/08 03:55:59;;;;;;;5.87;4.70;;;-1.70;99.90;;;;;;2080698;28;20268;-69
2021/01/08 03:57:00;;;;;;;7.50;4.37;;;-1.70;99.90;;;;;;2081330;28;20524;-69
2021/01/08 03:58:00;;;;;;;8.35;5.30;;;-1.70;99.90;;;;;;2081115;28;20234;-70
2021/01/08 03:59:01;;;;;;;6.87;4.73;;;-1.70;99.90;;;;;;2081420;28;20196;-70
2021/01/08 04:00:05;;;;;;;6.07;4.63;;;-1.80;99.90;;;;;;2080698;28;20180;-70
2021/01/08 04:01:06;;;;;;;7.25;5.30;;;-1.80;99.90;;;;;;2080650;28;20196;-71
2021/01/08 04:02:07;;;;;;;7.93;5.47;;;-1.80;99.90;;;;;;2081243;28;20701;-70
2021/01/08 04:03:08;;;;;;;8.13;5.37;;;-1.80;99.90;;;;;;2080749;28;20223;-70
2021/01/08 04:04:08;;;;;;;8.17;4.93;;;-1.80;99.90;;;;;;2080756;28;20179;-70
2021/01/08 04:05:10;;;;;;;7.50;5.47;;;-1.80;99.90;;;;;;2081176;28;20195;-71
2021/01/08 04:06:11;;;;;;;7.05;5.22;;;-1.80;99.90;;;;;;2081144;28;20180;-70
2021/01/08 04:07:12;;;;;;;10.18;5.60;;;-1.80;99.90;;;;;;2081469;28;20200;-70
2021/01/08 04:08:13;;;;;;;10.00;5.73;;;-1.80;99.90;;;;;;2081232;28;20548;-70
2021/01/08 04:09:13;;;;;;;9.02;5.75;;;-1.80;99.90;;;;;;2080633;28;20229;-71
2021/01/08 04:10:14;;;;;;;10.50;5.70;;;-1.80;99.90;;;;;;2080673;28;20988;-70
2021/01/08 04:11:15;;;;;;;8.73;5.73;;;-1.80;99.90;;;;;;2080986;28;20218;-71
2021/01/08 04:12:15;;;;;;;8.00;5.17;;;-1.70;99.90;;;;;;2081235;28;20180;-70
2021/01/08 04:13:16;;;;;;;9.87;5.83;;;-1.70;99.90;;;;;;2080728;28;20554;-70
2021/01/08 04:14:17;;;;;;;8.37;5.90;;;-1.70;99.90;;;;;;2080390;28;20267;-69
2021/01/08 04:15:17;;;;;;;8.67;5.57;;;-1.70;99.90;;;;;;2081085;28;20345;-70
2021/01/08 04:16:18;;;;;;;8.13;5.33;;;-1.70;99.90;;;;;;2080514;28;20175;-70
2021/01/08 04:17:19;;;;;;;9.60;6.13;;;-1.80;99.90;;;;;;2072664;28;20550;-70
2021/01/08 04:18:20;;;;;;;8.03;4.93;;;-1.80;99.90;;;;;;2072231;28;20238;-70
2021/01/08 04:19:20;;;;;;;8.70;5.00;;;-1.80;99.90;;;;;;2080547;28;20263;-70
2021/01/08 04:20:22;;;;;;;10.27;5.80;;;-1.80;99.90;;;;;;2081159;28;20677;-70
2021/01/08 04:21:22;;;;;;;8.43;5.18;;;-1.80;99.90;;;;;;2081116;28;20660;-70
2021/01/08 04:22:23;;;;;;;8.47;5.57;;;-1.80;99.90;;;;;;2081084;28;20176;-70
2021/01/08 04:23:23;;;;;;;7.50;5.03;;;-1.80;99.90;;;;;;2081067;28;20176;-71
2021/01/08 04:24:24;;;;;;;7.40;5.20;;;-1.80;99.90;;;;;;2081139;28;20552;-70
2021/01/08 04:25:25;;;;;;;6.80;4.70;;;-1.80;99.90;;;;;;2081701;28;20200;-70
2021/01/08 04:26:26;;;;;;;6.82;4.88;;;-1.80;99.90;;;;;;2082875;28;20183;-70
2021/01/08 04:27:27;;;;;;;7.07;5.13;;;-1.80;99.90;;;;;;2082893;28;20225;-70
2021/01/08 04:28:27;;;;;;;6.93;4.60;;;-1.80;99.90;;;;;;2082908;28;20176;-70
2021/01/08 04:29:28;;;;;;;9.93;4.93;;;-1.80;99.90;;;;;;2082980;28;20182;-70
2021/01/08 04:30:29;;;;;;;6.60;4.67;;;-1.80;99.90;;;;;;2082724;28;20785;-70
2021/01/08 04:31:29;;;;;;;8.43;5.10;;;-1.80;99.90;;;;;;2082011;28;20211;-71
2021/01/08 04:32:30;;;;;;;7.60;5.00;;;-1.80;99.90;;;;;;2082382;28;20183;-70
2021/01/08 04:33:31;;;;;;;6.43;4.50;;;-1.80;99.90;;;;;;2082966;28;20188;-70
2021/01/08 04:34:31;;;;;;;7.13;4.87;;;-1.80;99.90;;;;;;2082864;28;20262;-70
2021/01/08 04:35:32;;;;;;;6.80;4.60;;;-1.80;99.90;;;;;;2082760;28;20321;-70
2021/01/08 04:36:33;;;;;;;6.70;4.33;;;-1.80;99.90;;;;;;2082824;28;20722;-71
2021/01/08 04:37:34;;;;;;;6.20;4.38;;;-1.80;99.90;;;;;;2082688;28;20180;-70
2021/01/08 04:38:36;;;;;;;6.80;4.47;;;-1.80;99.90;;;;;;2082661;28;20723;-72
2021/01/08 04:39:37;;;;;;;7.45;4.75;;;-1.80;99.90;;;;;;2082230;28;20175;-70
2021/01/08 04:40:38;;;;;;;6.97;4.50;;;-1.80;99.90;;;;;;2073818;28;20235;-70
2021/01/08 04:41:39;;;;;;;8.73;4.77;;;-1.80;99.90;;;;;;2081957;28;20213;-70
2021/01/08 04:42:40;;;;;;;5.83;4.10;;;-1.80;99.90;;;;;;2081987;28;20214;-70
2021/01/08 04:43:40;;;;;;;8.13;4.37;;;-1.90;99.90;;;;;;2065710;28;20188;-70
2021/01/08 04:44:42;;;;;;;6.67;4.20;;;-1.90;99.90;;;;;;2073978;28;20679;-70
2021/01/08 04:45:43;;;;;;;7.28;3.90;;;-1.80;99.90;;;;;;2074024;28;20182;-69
2021/01/08 04:46:47;;;;;;;6.10;4.07;;;-1.90;99.90;;;;;;2074006;28;20192;-70
2021/01/08 04:47:49;;;;;;;7.80;4.40;;;-1.90;99.90;;;;;;2074168;28;20274;-70
2021/01/08 04:48:55;;;;;;;6.80;3.97;;;-1.80;99.90;;;;;;2082142;28;20685;-70
2021/01/08 04:49:56;;;;;;;4.63;3.30;;;-1.80;99.90;;;;;;2074611;28;20173;-70
2021/01/08 04:50:58;;;;;;;5.10;3.80;;;-1.90;99.90;;;;;;2073672;28;20191;-70
2021/01/08 04:52:00;;;;;;;4.10;3.22;;;-1.90;99.90;;;;;;2073891;28;20552;-70
2021/01/08 04:53:01;;;;;;;4.85;3.58;;;-2.00;99.90;;;;;;2074278;28;20604;-70
2021/01/08 04:54:04;;;;;;;4.60;3.40;;;-2.00;99.90;;;;;;2082185;28;20221;-70
2021/01/08 04:55:05;;;;;;;7.97;5.55;;;-2.00;99.90;;;;;;2082543;28;20298;-70
2021/01/08 04:56:12;;;;;;;7.25;5.32;;;-2.00;99.90;;;;;;2082652;28;20551;-70
2021/01/08 04:57:15;;;;;;;7.43;4.57;;;-2.00;99.90;;;;;;2082171;28;20267;-70
2021/01/08 04:58:17;;;;;;;7.43;4.45;;;-1.90;99.90;;;;;;2073936;28;20227;-70
2021/01/08 04:59:18;;;;;;;5.43;3.83;;;-1.90;99.90;;;;;;2073905;28;20184;-70
2021/01/08 05:00:19;;;;;;;5.28;3.60;;;-2.00;99.90;;;;;;2082043;28;20290;-70
2021/01/08 05:01:20;;;;;;;5.40;3.70;;;-1.90;99.90;;;;;;2081958;28;20270;-70
2021/01/08 05:02:21;;;;;;;4.93;3.90;;;-1.90;99.90;;;;;;2073680;28;20584;-70
2021/01/08 05:03:22;;;;;;;4.72;3.25;;;-1.90;99.90;;;;;;2073830;28;20176;-70
2021/01/08 05:04:24;;;;;;;6.37;3.43;;;-1.90;99.90;;;;;;2073998;28;20646;-70
2021/01/08 05:05:25;;;;;;;5.75;3.78;;;-1.90;99.90;;;;;;2081952;28;20686;-70
2021/01/08 05:06:25;;;;;;;4.53;3.43;;;-2.00;99.90;;;;;;2082587;28;20192;-70
2021/01/08 05:07:26;;;;;;;6.30;3.60;;;-1.90;99.90;;;;;;2082109;28;20247;-70
2021/01/08 05:08:27;;;;;;;5.60;3.43;;;-1.90;99.90;;;;;;2081891;28;20186;-70
2021/01/08 05:09:28;;;;;;;5.30;3.55;;;-1.90;99.90;;;;;;2082644;28;20453;-70
2021/01/08 05:10:29;;;;;;;6.10;4.00;;;-1.90;99.90;;;;;;2082728;28;20190;-70
2021/01/08 05:11:31;;;;;;;7.50;3.93;;;-1.80;99.90;;;;;;2073823;28;20187;-70
2021/01/08 05:12:42;;;;;;;5.43;3.80;;;-1.80;99.90;;;;;;2074291;28;20185;-70
2021/01/08 05:13:43;;;;;;;6.05;3.40;;;-1.80;99.90;;;;;;2082222;28;20203;-70
2021/01/08 05:14:44;;;;;;;6.37;3.67;;;-1.80;99.90;;;;;;2082033;28;20287;-70
2021/01/08 05:15:52;;;;;;;6.97;3.85;;;-1.80;99.90;;;;;;2082602;28;20249;-70
2021/01/08 05:16:56;;;;;;;7.43;4.13;;;-1.80;99.90;;;;;;2079638;28;20209;-70
2021/01/08 05:17:57;;;;;;;4.65;3.65;;;-1.80;99.90;;;;;;2073825;28;20185;-70
2021/01/08 05:19:03;;;;;;;6.70;4.00;;;-1.90;99.90;;;;;;2065406;28;20223;-70
2021/01/08 05:20:04;;;;;;;6.70;4.10;;;-1.90;99.90;;;;;;2066501;28;20640;-70